sensor_id;sensor_type;location;lat;lon;timestamp;P1;durP1;ratioP1;P2;durP2;ratioP2
80675;SDS011;70041;46.088;18.268;2023-07-20T00:01:27;10.98;;;2.70;;
80675;SDS011;70041;46.088;18.268;2023-07-20T00:03:56;9.33;;;2.60;;
80675;SDS011;70041;46.088;18.268;2023-07-20T00:06:22;9.35;;;2.53;;
80675;SDS011;70041;46.088;18.268;2023-07-20T00:08:49;8.52;;;2.60;;
80675;SDS011;70041;46.088;18.268;2023-07-20T00:11:14;7.90;;;2.73;;
80675;SDS011;70041;46.088;18.268;2023-07-20T00:13:40;7.20;;;2.50;;
80675;SDS011;70041;46.088;18.268;2023-07-20T00:16:05;9.23;;;2.53;;
80675;SDS011;70041;46.088;18.268;2023-07-20T00:18:31;7.25;;;2.30;;
80675;SDS011;70041;46.088;18.268;2023-07-20T00:20:57;14.37;;;2.83;;
80675;SDS011;70041;46.088;18.268;2023-07-20T00:23:23;7.07;;;2.85;;
80675;SDS011;70041;46.088;18.268;2023-07-20T00:25:49;6.83;;;2.40;;
80675;SDS011;70041;46.088;18.268;2023-07-20T00:28:14;12.27;;;2.43;;
80675;SDS011;70041;46.088;18.268;2023-07-20T00:30:41;6.57;;;2.58;;
80675;SDS011;70041;46.088;18.268;2023-07-20T00:33:09;8.90;;;2.60;;
80675;SDS011;70041;46.088;18.268;2023-07-20T00:35:35;7.85;;;2.45;;
80675;SDS011;70041;46.088;18.268;2023-07-20T00:38:02;7.25;;;2.60;;
80675;SDS011;70041;46.088;18.268;2023-07-20T00:40:28;8.53;;;2.97;;
80675;SDS011;70041;46.088;18.268;2023-07-20T00:42:54;6.63;;;2.55;;
80675;SDS011;70041;46.088;18.268;2023-07-20T00:45:19;10.80;;;3.20;;
80675;SDS011;70041;46.088;18.268;2023-07-20T00:47:45;8.67;;;2.50;;
80675;SDS011;70041;46.088;18.268;2023-07-20T00:50:11;7.30;;;2.60;;
80675;SDS011;70041;46.088;18.268;2023-07-20T00:52:37;9.98;;;3.42;;
80675;SDS011;70041;46.088;18.268;2023-07-20T00:55:05;9.60;;;2.63;;
80675;SDS011;70041;46.088;18.268;2023-07-20T00:57:32;8.55;;;2.75;;
80675;SDS011;70041;46.088;18.268;2023-07-20T00:59:57;9.37;;;2.80;;
80675;SDS011;70041;46.088;18.268;2023-07-20T01:02:23;8.70;;;2.90;;
80675;SDS011;70041;46.088;18.268;2023-07-20T01:04:49;7.60;;;2.57;;
80675;SDS011;70041;46.088;18.268;2023-07-20T01:10:18;8.43;;;2.70;;
80675;SDS011;70041;46.088;18.268;2023-07-20T01:12:53;5.68;;;2.35;;
80675;SDS011;70041;46.088;18.268;2023-07-20T01:15:20;8.40;;;2.10;;
80675;SDS011;70041;46.088;18.268;2023-07-20T01:17:46;7.70;;;2.30;;
80675;SDS011;70041;46.088;18.268;2023-07-20T01:20:15;6.82;;;1.95;;
80675;SDS011;70041;46.088;18.268;2023-07-20T01:31:16;5.78;;;1.80;;
80675;SDS011;70041;46.088;18.268;2023-07-20T01:34:02;6.68;;;2.00;;
80675;SDS011;70041;46.088;18.268;2023-07-20T01:36:29;5.90;;;2.15;;
80675;SDS011;70041;46.088;18.268;2023-07-20T01:38:58;7.80;;;2.30;;
80675;SDS011;70041;46.088;18.268;2023-07-20T01:41:24;7.68;;;2.08;;
80675;SDS011;70041;46.088;18.268;2023-07-20T01:43:49;6.80;;;2.03;;
80675;SDS011;70041;46.088;18.268;2023-07-20T01:46:15;7.25;;;1.80;;
80675;SDS011;70041;46.088;18.268;2023-07-20T01:48:41;6.10;;;2.00;;
80675;SDS011;70041;46.088;18.268;2023-07-20T01:51:06;6.88;;;1.90;;
80675;SDS011;70041;46.088;18.268;2023-07-20T01:53:31;5.90;;;2.00;;
80675;SDS011;70041;46.088;18.268;2023-07-20T01:55:57;6.40;;;2.03;;
80675;SDS011;70041;46.088;18.268;2023-07-20T01:58:23;7.35;;;1.70;;
80675;SDS011;70041;46.088;18.268;2023-07-20T02:00:49;5.77;;;1.90;;
80675;SDS011;70041;46.088;18.268;2023-07-20T02:03:14;6.87;;;2.03;;
80675;SDS011;70041;46.088;18.268;2023-07-20T02:05:41;6.85;;;2.38;;
80675;SDS011;70041;46.088;18.268;2023-07-20T02:08:07;6.37;;;1.80;;
80675;SDS011;70041;46.088;18.268;2023-07-20T02:10:39;7.22;;;2.00;;
80675;SDS011;70041;46.088;18.268;2023-07-20T02:13:04;6.18;;;1.75;;
80675;SDS011;70041;46.088;18.268;2023-07-20T02:15:29;5.10;;;1.83;;
80675;SDS011;70041;46.088;18.268;2023-07-20T02:17:55;5.83;;;1.70;;
80675;SDS011;70041;46.088;18.268;2023-07-20T02:20:20;6.53;;;2.33;;
80675;SDS011;70041;46.088;18.268;2023-07-20T02:22:46;5.75;;;1.85;;
80675;SDS011;70041;46.088;18.268;2023-07-20T02:25:11;7.10;;;2.33;;
80675;SDS011;70041;46.088;18.268;2023-07-20T02:27:37;6.83;;;2.40;;
80675;SDS011;70041;46.088;18.268;2023-07-20T02:30:03;4.70;;;1.70;;
80675;SDS011;70041;46.088;18.268;2023-07-20T02:32:30;7.28;;;2.33;;
80675;SDS011;70041;46.088;18.268;2023-07-20T02:34:56;6.43;;;2.45;;
80675;SDS011;70041;46.088;18.268;2023-07-20T02:37:22;6.18;;;2.97;;
80675;SDS011;70041;46.088;18.268;2023-07-20T02:39:48;9.63;;;2.97;;
80675;SDS011;70041;46.088;18.268;2023-07-20T02:42:13;7.70;;;2.67;;
80675;SDS011;70041;46.088;18.268;2023-07-20T02:44:39;9.77;;;3.15;;
80675;SDS011;70041;46.088;18.268;2023-07-20T02:47:04;6.83;;;2.83;;
80675;SDS011;70041;46.088;18.268;2023-07-20T02:49:30;9.10;;;3.10;;
80675;SDS011;70041;46.088;18.268;2023-07-20T02:51:56;9.30;;;2.87;;
80675;SDS011;70041;46.088;18.268;2023-07-20T02:54:21;8.27;;;3.43;;
80675;SDS011;70041;46.088;18.268;2023-07-20T02:56:47;6.80;;;2.90;;
80675;SDS011;70041;46.088;18.268;2023-07-20T02:59:12;8.27;;;3.40;;
80675;SDS011;70041;46.088;18.268;2023-07-20T03:01:38;9.50;;;3.73;;
80675;SDS011;70041;46.088;18.268;2023-07-20T03:04:03;10.47;;;4.03;;
80675;SDS011;70041;46.088;18.268;2023-07-20T03:06:29;8.07;;;3.17;;
80675;SDS011;70041;46.088;18.268;2023-07-20T03:08:54;9.33;;;3.50;;
80675;SDS011;70041;46.088;18.268;2023-07-20T03:11:20;6.83;;;3.23;;
80675;SDS011;70041;46.088;18.268;2023-07-20T03:13:46;9.45;;;3.60;;
80675;SDS011;70041;46.088;18.268;2023-07-20T03:16:12;9.50;;;3.83;;
80675;SDS011;70041;46.088;18.268;2023-07-20T03:18:44;10.90;;;3.77;;
80675;SDS011;70041;46.088;18.268;2023-07-20T03:21:11;10.30;;;3.53;;
80675;SDS011;70041;46.088;18.268;2023-07-20T03:23:36;8.70;;;3.50;;
80675;SDS011;70041;46.088;18.268;2023-07-20T03:26:02;7.07;;;2.40;;
80675;SDS011;70041;46.088;18.268;2023-07-20T03:28:28;7.90;;;2.93;;
80675;SDS011;70041;46.088;18.268;2023-07-20T03:30:56;10.20;;;3.43;;
80675;SDS011;70041;46.088;18.268;2023-07-20T03:33:26;7.68;;;3.20;;
80675;SDS011;70041;46.088;18.268;2023-07-20T03:35:52;10.90;;;4.18;;
80675;SDS011;70041;46.088;18.268;2023-07-20T03:38:18;7.63;;;2.63;;
80675;SDS011;70041;46.088;18.268;2023-07-20T03:40:50;6.45;;;2.50;;
80675;SDS011;70041;46.088;18.268;2023-07-20T03:43:24;7.70;;;2.80;;
80675;SDS011;70041;46.088;18.268;2023-07-20T03:45:50;7.97;;;3.10;;
80675;SDS011;70041;46.088;18.268;2023-07-20T03:48:17;7.10;;;2.80;;
80675;SDS011;70041;46.088;18.268;2023-07-20T03:50:48;9.73;;;2.97;;
80675;SDS011;70041;46.088;18.268;2023-07-20T03:53:15;6.57;;;2.70;;
80675;SDS011;70041;46.088;18.268;2023-07-20T03:55:44;7.25;;;2.78;;
80675;SDS011;70041;46.088;18.268;2023-07-20T03:58:11;9.75;;;2.95;;
80675;SDS011;70041;46.088;18.268;2023-07-20T04:00:37;9.20;;;3.13;;
80675;SDS011;70041;46.088;18.268;2023-07-20T04:03:02;8.60;;;2.60;;
80675;SDS011;70041;46.088;18.268;2023-07-20T04:05:28;5.77;;;2.33;;
80675;SDS011;70041;46.088;18.268;2023-07-20T04:07:53;7.13;;;2.57;;
80675;SDS011;70041;46.088;18.268;2023-07-20T04:10:19;7.30;;;2.87;;
80675;SDS011;70041;46.088;18.268;2023-07-20T04:12:44;7.43;;;2.72;;
80675;SDS011;70041;46.088;18.268;2023-07-20T04:15:12;7.50;;;2.60;;
80675;SDS011;70041;46.088;18.268;2023-07-20T04:17:38;8.48;;;2.80;;
80675;SDS011;70041;46.088;18.268;2023-07-20T04:20:04;8.38;;;3.00;;
80675;SDS011;70041;46.088;18.268;2023-07-20T04:22:31;8.43;;;2.83;;
80675;SDS011;70041;46.088;18.268;2023-07-20T04:24:56;8.07;;;3.27;;
80675;SDS011;70041;46.088;18.268;2023-07-20T04:27:22;6.80;;;2.87;;
80675;SDS011;70041;46.088;18.268;2023-07-20T04:29:47;8.52;;;3.13;;
80675;SDS011;70041;46.088;18.268;2023-07-20T04:32:13;7.80;;;3.20;;
80675;SDS011;70041;46.088;18.268;2023-07-20T04:34:38;10.40;;;3.00;;
80675;SDS011;70041;46.088;18.268;2023-07-20T04:37:04;6.88;;;2.97;;
80675;SDS011;70041;46.088;18.268;2023-07-20T04:39:30;7.23;;;3.30;;
80675;SDS011;70041;46.088;18.268;2023-07-20T04:41:56;7.28;;;2.85;;
80675;SDS011;70041;46.088;18.268;2023-07-20T04:44:24;17.37;;;4.90;;
80675;SDS011;70041;46.088;18.268;2023-07-20T04:46:50;7.35;;;3.00;;
80675;SDS011;70041;46.088;18.268;2023-07-20T04:49:15;8.57;;;3.07;;
80675;SDS011;70041;46.088;18.268;2023-07-20T04:51:41;7.38;;;2.90;;
80675;SDS011;70041;46.088;18.268;2023-07-20T04:54:06;7.70;;;3.13;;
80675;SDS011;70041;46.088;18.268;2023-07-20T04:56:32;9.57;;;3.10;;
80675;SDS011;70041;46.088;18.268;2023-07-20T04:58:58;7.60;;;3.13;;
80675;SDS011;70041;46.088;18.268;2023-07-20T05:01:24;8.73;;;3.30;;
80675;SDS011;70041;46.088;18.268;2023-07-20T05:03:49;8.60;;;3.40;;
80675;SDS011;70041;46.088;18.268;2023-07-20T05:06:15;8.70;;;3.23;;
80675;SDS011;70041;46.088;18.268;2023-07-20T05:08:40;8.55;;;3.60;;
80675;SDS011;70041;46.088;18.268;2023-07-20T05:11:06;7.03;;;3.00;;
80675;SDS011;70041;46.088;18.268;2023-07-20T05:13:34;9.77;;;3.00;;
80675;SDS011;70041;46.088;18.268;2023-07-20T05:16:00;7.80;;;3.63;;
80675;SDS011;70041;46.088;18.268;2023-07-20T05:18:26;10.88;;;3.25;;
80675;SDS011;70041;46.088;18.268;2023-07-20T05:20:52;8.57;;;2.90;;
80675;SDS011;70041;46.088;18.268;2023-07-20T05:23:18;9.50;;;3.07;;
80675;SDS011;70041;46.088;18.268;2023-07-20T05:25:47;6.80;;;2.78;;
80675;SDS011;70041;46.088;18.268;2023-07-20T05:28:18;8.60;;;3.15;;
80675;SDS011;70041;46.088;18.268;2023-07-20T05:30:44;11.67;;;3.50;;
80675;SDS011;70041;46.088;18.268;2023-07-20T05:33:09;7.90;;;3.27;;
80675;SDS011;70041;46.088;18.268;2023-07-20T05:35:35;8.57;;;3.20;;
80675;SDS011;70041;46.088;18.268;2023-07-20T05:38:01;8.57;;;3.60;;
80675;SDS011;70041;46.088;18.268;2023-07-20T05:40:29;11.10;;;3.57;;
80675;SDS011;70041;46.088;18.268;2023-07-20T05:42:54;9.25;;;3.55;;
80675;SDS011;70041;46.088;18.268;2023-07-20T05:45:22;10.10;;;3.35;;
80675;SDS011;70041;46.088;18.268;2023-07-20T05:47:47;10.70;;;3.77;;
80675;SDS011;70041;46.088;18.268;2023-07-20T05:50:13;10.10;;;3.50;;
80675;SDS011;70041;46.088;18.268;2023-07-20T05:52:39;7.90;;;3.53;;
80675;SDS011;70041;46.088;18.268;2023-07-20T05:55:05;8.88;;;3.63;;
80675;SDS011;70041;46.088;18.268;2023-07-20T05:57:31;11.40;;;3.60;;
80675;SDS011;70041;46.088;18.268;2023-07-20T05:59:57;12.20;;;3.87;;
80675;SDS011;70041;46.088;18.268;2023-07-20T06:02:22;9.40;;;3.37;;
80675;SDS011;70041;46.088;18.268;2023-07-20T06:04:48;7.93;;;3.47;;
80675;SDS011;70041;46.088;18.268;2023-07-20T06:07:13;9.70;;;3.90;;
80675;SDS011;70041;46.088;18.268;2023-07-20T06:09:39;8.40;;;3.67;;
80675;SDS011;70041;46.088;18.268;2023-07-20T06:12:05;9.75;;;3.40;;
80675;SDS011;70041;46.088;18.268;2023-07-20T06:14:31;11.02;;;4.10;;
80675;SDS011;70041;46.088;18.268;2023-07-20T06:16:56;10.60;;;3.57;;
80675;SDS011;70041;46.088;18.268;2023-07-20T06:19:22;8.82;;;3.53;;
80675;SDS011;70041;46.088;18.268;2023-07-20T06:21:50;8.20;;;3.50;;
80675;SDS011;70041;46.088;18.268;2023-07-20T06:24:16;11.07;;;3.53;;
80675;SDS011;70041;46.088;18.268;2023-07-20T06:26:42;10.27;;;3.97;;
80675;SDS011;70041;46.088;18.268;2023-07-20T06:29:07;8.50;;;3.57;;
80675;SDS011;70041;46.088;18.268;2023-07-20T06:31:34;9.65;;;2.95;;
80675;SDS011;70041;46.088;18.268;2023-07-20T06:34:01;7.90;;;2.70;;
80675;SDS011;70041;46.088;18.268;2023-07-20T06:36:26;7.93;;;2.77;;
80675;SDS011;70041;46.088;18.268;2023-07-20T06:38:52;7.07;;;2.65;;
80675;SDS011;70041;46.088;18.268;2023-07-20T06:41:18;7.80;;;2.57;;
80675;SDS011;70041;46.088;18.268;2023-07-20T06:43:44;7.13;;;2.75;;
80675;SDS011;70041;46.088;18.268;2023-07-20T06:46:10;10.05;;;3.83;;
80675;SDS011;70041;46.088;18.268;2023-07-20T06:48:35;9.37;;;3.60;;
80675;SDS011;70041;46.088;18.268;2023-07-20T06:51:01;8.55;;;3.25;;
80675;SDS011;70041;46.088;18.268;2023-07-20T06:53:27;11.37;;;3.47;;
80675;SDS011;70041;46.088;18.268;2023-07-20T06:55:53;10.70;;;3.35;;
80675;SDS011;70041;46.088;18.268;2023-07-20T06:58:22;10.00;;;3.45;;
80675;SDS011;70041;46.088;18.268;2023-07-20T07:00:48;8.57;;;3.25;;
80675;SDS011;70041;46.088;18.268;2023-07-20T07:03:13;6.63;;;2.80;;
80675;SDS011;70041;46.088;18.268;2023-07-20T07:05:39;6.90;;;3.10;;
80675;SDS011;70041;46.088;18.268;2023-07-20T07:08:05;11.10;;;3.93;;
80675;SDS011;70041;46.088;18.268;2023-07-20T07:10:31;10.03;;;3.47;;
80675;SDS011;70041;46.088;18.268;2023-07-20T07:12:56;8.45;;;3.03;;
80675;SDS011;70041;46.088;18.268;2023-07-20T07:15:22;9.50;;;3.50;;
80675;SDS011;70041;46.088;18.268;2023-07-20T07:17:47;8.13;;;3.00;;
80675;SDS011;70041;46.088;18.268;2023-07-20T07:20:13;9.47;;;3.40;;
80675;SDS011;70041;46.088;18.268;2023-07-20T07:22:38;6.70;;;3.00;;
80675;SDS011;70041;46.088;18.268;2023-07-20T07:25:04;9.05;;;3.25;;
80675;SDS011;70041;46.088;18.268;2023-07-20T07:27:30;7.87;;;2.70;;
80675;SDS011;70041;46.088;18.268;2023-07-20T07:29:55;7.32;;;3.03;;
80675;SDS011;70041;46.088;18.268;2023-07-20T07:32:21;10.23;;;3.10;;
80675;SDS011;70041;46.088;18.268;2023-07-20T07:34:46;9.50;;;3.30;;
80675;SDS011;70041;46.088;18.268;2023-07-20T07:37:12;8.68;;;3.17;;
80675;SDS011;70041;46.088;18.268;2023-07-20T07:39:38;7.82;;;2.95;;
80675;SDS011;70041;46.088;18.268;2023-07-20T07:42:04;9.20;;;3.57;;
80675;SDS011;70041;46.088;18.268;2023-07-20T07:44:30;8.00;;;3.28;;
80675;SDS011;70041;46.088;18.268;2023-07-20T07:46:55;8.77;;;3.10;;
80675;SDS011;70041;46.088;18.268;2023-07-20T07:49:21;7.75;;;2.92;;
80675;SDS011;70041;46.088;18.268;2023-07-20T07:51:49;8.33;;;2.73;;
80675;SDS011;70041;46.088;18.268;2023-07-20T07:54:15;8.50;;;3.22;;
80675;SDS011;70041;46.088;18.268;2023-07-20T07:56:40;8.50;;;3.10;;
80675;SDS011;70041;46.088;18.268;2023-07-20T07:59:06;6.83;;;3.13;;
80675;SDS011;70041;46.088;18.268;2023-07-20T08:01:31;9.07;;;2.90;;
80675;SDS011;70041;46.088;18.268;2023-07-20T08:03:57;8.97;;;3.00;;
80675;SDS011;70041;46.088;18.268;2023-07-20T08:06:23;7.35;;;2.75;;
80675;SDS011;70041;46.088;18.268;2023-07-20T08:08:49;7.07;;;2.90;;
80675;SDS011;70041;46.088;18.268;2023-07-20T08:11:15;6.63;;;2.90;;
80675;SDS011;70041;46.088;18.268;2023-07-20T08:13:42;6.90;;;2.90;;
80675;SDS011;70041;46.088;18.268;2023-07-20T08:16:08;7.53;;;3.30;;
80675;SDS011;70041;46.088;18.268;2023-07-20T08:18:33;7.60;;;2.80;;
80675;SDS011;70041;46.088;18.268;2023-07-20T08:20:59;7.53;;;3.07;;
80675;SDS011;70041;46.088;18.268;2023-07-20T08:23:24;9.03;;;3.10;;
80675;SDS011;70041;46.088;18.268;2023-07-20T08:25:50;7.53;;;3.15;;
80675;SDS011;70041;46.088;18.268;2023-07-20T08:28:15;6.60;;;2.87;;
80675;SDS011;70041;46.088;18.268;2023-07-20T08:30:42;7.68;;;2.97;;
80675;SDS011;70041;46.088;18.268;2023-07-20T08:33:09;8.97;;;2.97;;
80675;SDS011;70041;46.088;18.268;2023-07-20T08:35:35;7.70;;;2.60;;
80675;SDS011;70041;46.088;18.268;2023-07-20T08:40:47;7.10;;;2.92;;
80675;SDS011;70041;46.088;18.268;2023-07-20T08:43:13;7.93;;;2.80;;
80675;SDS011;70041;46.088;18.268;2023-07-20T08:45:41;6.25;;;2.85;;
80675;SDS011;70041;46.088;18.268;2023-07-20T08:48:10;7.40;;;3.00;;
80675;SDS011;70041;46.088;18.268;2023-07-20T08:50:36;7.43;;;2.80;;
80675;SDS011;70041;46.088;18.268;2023-07-20T08:53:03;7.18;;;2.80;;
80675;SDS011;70041;46.088;18.268;2023-07-20T08:55:29;7.37;;;3.10;;
80675;SDS011;70041;46.088;18.268;2023-07-20T08:57:59;8.40;;;3.28;;
80675;SDS011;70041;46.088;18.268;2023-07-20T09:00:25;8.95;;;2.97;;
80675;SDS011;70041;46.088;18.268;2023-07-20T09:02:55;6.82;;;2.90;;
80675;SDS011;70041;46.088;18.268;2023-07-20T09:05:21;6.60;;;2.63;;
80675;SDS011;70041;46.088;18.268;2023-07-20T09:07:48;6.63;;;2.78;;
80675;SDS011;70041;46.088;18.268;2023-07-20T09:10:14;7.63;;;2.90;;
80675;SDS011;70041;46.088;18.268;2023-07-20T09:12:40;8.27;;;3.20;;
80675;SDS011;70041;46.088;18.268;2023-07-20T09:15:07;7.82;;;2.78;;
80675;SDS011;70041;46.088;18.268;2023-07-20T09:17:34;7.38;;;2.92;;
80675;SDS011;70041;46.088;18.268;2023-07-20T09:20:03;7.07;;;2.67;;
80675;SDS011;70041;46.088;18.268;2023-07-20T09:22:33;8.27;;;2.60;;
80675;SDS011;70041;46.088;18.268;2023-07-20T09:24:59;6.63;;;2.88;;
80675;SDS011;70041;46.088;18.268;2023-07-20T09:27:40;9.53;;;2.77;;
80675;SDS011;70041;46.088;18.268;2023-07-20T09:30:07;9.30;;;3.22;;
80675;SDS011;70041;46.088;18.268;2023-07-20T09:32:44;6.38;;;2.72;;
80675;SDS011;70041;46.088;18.268;2023-07-20T09:35:18;8.43;;;3.00;;
80675;SDS011;70041;46.088;18.268;2023-07-20T09:37:54;8.02;;;3.00;;
80675;SDS011;70041;46.088;18.268;2023-07-20T09:40:24;7.10;;;3.00;;
80675;SDS011;70041;46.088;18.268;2023-07-20T09:42:49;8.52;;;2.80;;
80675;SDS011;70041;46.088;18.268;2023-07-20T09:45:17;6.93;;;2.45;;
80675;SDS011;70041;46.088;18.268;2023-07-20T09:47:42;7.53;;;3.10;;
80675;SDS011;70041;46.088;18.268;2023-07-20T09:50:08;8.53;;;2.87;;
80675;SDS011;70041;46.088;18.268;2023-07-20T09:52:38;7.97;;;2.80;;
80675;SDS011;70041;46.088;18.268;2023-07-20T09:55:05;9.13;;;3.30;;
80675;SDS011;70041;46.088;18.268;2023-07-20T09:57:33;7.68;;;2.95;;
80675;SDS011;70041;46.088;18.268;2023-07-20T09:59:58;9.30;;;3.13;;
80675;SDS011;70041;46.088;18.268;2023-07-20T10:02:30;8.50;;;3.10;;
80675;SDS011;70041;46.088;18.268;2023-07-20T10:04:58;8.27;;;3.10;;
80675;SDS011;70041;46.088;18.268;2023-07-20T10:07:33;7.07;;;3.08;;
80675;SDS011;70041;46.088;18.268;2023-07-20T10:10:01;8.73;;;3.20;;
80675;SDS011;70041;46.088;18.268;2023-07-20T10:12:28;8.20;;;3.40;;
80675;SDS011;70041;46.088;18.268;2023-07-20T10:14:59;6.20;;;2.87;;
80675;SDS011;70041;46.088;18.268;2023-07-20T10:17:29;6.28;;;2.92;;
80675;SDS011;70041;46.088;18.268;2023-07-20T10:19:56;8.05;;;3.17;;
80675;SDS011;70041;46.088;18.268;2023-07-20T10:22:26;8.05;;;2.80;;
80675;SDS011;70041;46.088;18.268;2023-07-20T10:24:52;8.43;;;2.90;;
80675;SDS011;70041;46.088;18.268;2023-07-20T10:27:22;6.93;;;2.93;;
80675;SDS011;70041;46.088;18.268;2023-07-20T10:29:48;9.63;;;2.90;;
80675;SDS011;70041;46.088;18.268;2023-07-20T10:32:15;6.97;;;2.60;;
80675;SDS011;70041;46.088;18.268;2023-07-20T10:34:40;7.55;;;2.92;;
80675;SDS011;70041;46.088;18.268;2023-07-20T10:37:06;7.77;;;3.30;;
80675;SDS011;70041;46.088;18.268;2023-07-20T10:39:32;7.27;;;3.13;;
80675;SDS011;70041;46.088;18.268;2023-07-20T10:42:01;8.38;;;3.05;;
80675;SDS011;70041;46.088;18.268;2023-07-20T10:44:28;6.78;;;3.13;;
80675;SDS011;70041;46.088;18.268;2023-07-20T10:47:08;6.35;;;3.13;;
80675;SDS011;70041;46.088;18.268;2023-07-20T10:49:34;6.43;;;3.00;;
80675;SDS011;70041;46.088;18.268;2023-07-20T10:52:04;7.85;;;3.10;;
80675;SDS011;70041;46.088;18.268;2023-07-20T10:56:57;10.10;;;3.47;;
80675;SDS011;70041;46.088;18.268;2023-07-20T10:59:43;6.47;;;2.90;;
80675;SDS011;70041;46.088;18.268;2023-07-20T11:02:12;7.38;;;2.83;;
80675;SDS011;70041;46.088;18.268;2023-07-20T11:04:38;7.70;;;3.13;;
80675;SDS011;70041;46.088;18.268;2023-07-20T11:07:04;7.53;;;3.33;;
80675;SDS011;70041;46.088;18.268;2023-07-20T11:09:35;6.53;;;2.88;;
80675;SDS011;70041;46.088;18.268;2023-07-20T11:12:10;7.03;;;3.00;;
80675;SDS011;70041;46.088;18.268;2023-07-20T11:14:43;7.32;;;2.70;;
80675;SDS011;70041;46.088;18.268;2023-07-20T11:17:18;6.55;;;2.72;;
80675;SDS011;70041;46.088;18.268;2023-07-20T11:19:47;6.85;;;2.60;;
80675;SDS011;70041;46.088;18.268;2023-07-20T11:22:13;6.53;;;2.88;;
80675;SDS011;70041;46.088;18.268;2023-07-20T11:24:42;6.87;;;2.90;;
80675;SDS011;70041;46.088;18.268;2023-07-20T11:27:08;9.30;;;2.47;;
80675;SDS011;70041;46.088;18.268;2023-07-20T11:29:37;7.23;;;2.60;;
80675;SDS011;70041;46.088;18.268;2023-07-20T11:32:03;7.22;;;2.90;;
80675;SDS011;70041;46.088;18.268;2023-07-20T11:34:30;7.50;;;2.90;;
80675;SDS011;70041;46.088;18.268;2023-07-20T11:36:56;7.33;;;2.90;;
80675;SDS011;70041;46.088;18.268;2023-07-20T11:39:22;7.13;;;3.00;;
80675;SDS011;70041;46.088;18.268;2023-07-20T11:41:54;7.88;;;2.90;;
80675;SDS011;70041;46.088;18.268;2023-07-20T11:44:21;6.73;;;2.67;;
80675;SDS011;70041;46.088;18.268;2023-07-20T11:49:40;7.45;;;2.65;;
80675;SDS011;70041;46.088;18.268;2023-07-20T11:52:07;7.35;;;2.75;;
80675;SDS011;70041;46.088;18.268;2023-07-20T11:54:34;7.70;;;2.85;;
80675;SDS011;70041;46.088;18.268;2023-07-20T11:57:01;7.73;;;3.00;;
80675;SDS011;70041;46.088;18.268;2023-07-20T11:59:31;7.18;;;2.80;;
80675;SDS011;70041;46.088;18.268;2023-07-20T12:04:41;7.05;;;2.47;;
80675;SDS011;70041;46.088;18.268;2023-07-20T12:07:07;5.97;;;2.67;;
80675;SDS011;70041;46.088;18.268;2023-07-20T12:09:32;7.17;;;2.60;;
80675;SDS011;70041;46.088;18.268;2023-07-20T12:11:58;7.78;;;2.75;;
80675;SDS011;70041;46.088;18.268;2023-07-20T12:14:25;6.03;;;2.60;;
80675;SDS011;70041;46.088;18.268;2023-07-20T12:16:53;6.35;;;3.10;;
80675;SDS011;70041;46.088;18.268;2023-07-20T12:19:19;7.22;;;2.90;;
80675;SDS011;70041;46.088;18.268;2023-07-20T12:21:47;7.27;;;3.00;;
80675;SDS011;70041;46.088;18.268;2023-07-20T12:24:13;6.40;;;2.90;;
80675;SDS011;70041;46.088;18.268;2023-07-20T12:26:38;6.63;;;2.60;;
80675;SDS011;70041;46.088;18.268;2023-07-20T12:29:07;8.27;;;2.95;;
80675;SDS011;70041;46.088;18.268;2023-07-20T12:31:33;6.43;;;3.20;;
80675;SDS011;70041;46.088;18.268;2023-07-20T12:34:01;6.43;;;2.70;;
80675;SDS011;70041;46.088;18.268;2023-07-20T12:36:26;9.93;;;3.17;;
80675;SDS011;70041;46.088;18.268;2023-07-20T12:38:52;6.40;;;2.80;;
80675;SDS011;70041;46.088;18.268;2023-07-20T12:41:17;6.95;;;3.05;;
80675;SDS011;70041;46.088;18.268;2023-07-20T12:43:44;7.37;;;2.80;;
80675;SDS011;70041;46.088;18.268;2023-07-20T12:46:10;7.30;;;2.83;;
80675;SDS011;70041;46.088;18.268;2023-07-20T12:48:37;8.30;;;3.20;;
80675;SDS011;70041;46.088;18.268;2023-07-20T12:51:03;9.73;;;2.80;;
80675;SDS011;70041;46.088;18.268;2023-07-20T12:53:29;6.72;;;3.20;;
80675;SDS011;70041;46.088;18.268;2023-07-20T12:55:56;5.90;;;2.95;;
80675;SDS011;70041;46.088;18.268;2023-07-20T12:58:21;7.13;;;3.00;;
80675;SDS011;70041;46.088;18.268;2023-07-20T13:00:48;8.27;;;3.08;;
80675;SDS011;70041;46.088;18.268;2023-07-20T13:03:14;7.22;;;2.90;;
80675;SDS011;70041;46.088;18.268;2023-07-20T13:05:48;6.70;;;3.20;;
80675;SDS011;70041;46.088;18.268;2023-07-20T13:08:15;7.63;;;3.22;;
80675;SDS011;70041;46.088;18.268;2023-07-20T13:10:40;7.45;;;3.38;;
80675;SDS011;70041;46.088;18.268;2023-07-20T13:13:06;6.53;;;3.00;;
80675;SDS011;70041;46.088;18.268;2023-07-20T13:15:40;7.22;;;2.90;;
80675;SDS011;70041;46.088;18.268;2023-07-20T13:18:06;7.80;;;2.85;;
80675;SDS011;70041;46.088;18.268;2023-07-20T13:20:31;11.40;;;3.10;;
80675;SDS011;70041;46.088;18.268;2023-07-20T13:22:57;7.67;;;3.10;;
80675;SDS011;70041;46.088;18.268;2023-07-20T13:25:22;8.13;;;3.13;;
80675;SDS011;70041;46.088;18.268;2023-07-20T13:27:48;6.20;;;2.70;;
80675;SDS011;70041;46.088;18.268;2023-07-20T13:30:13;5.83;;;2.83;;
80675;SDS011;70041;46.088;18.268;2023-07-20T13:32:42;6.78;;;2.83;;
80675;SDS011;70041;46.088;18.268;2023-07-20T13:35:08;6.93;;;2.50;;
80675;SDS011;70041;46.088;18.268;2023-07-20T13:37:34;6.38;;;2.75;;
80675;SDS011;70041;46.088;18.268;2023-07-20T13:39:59;6.00;;;2.63;;
80675;SDS011;70041;46.088;18.268;2023-07-20T13:42:25;6.30;;;2.90;;
80675;SDS011;70041;46.088;18.268;2023-07-20T13:44:50;6.17;;;2.67;;
80675;SDS011;70041;46.088;18.268;2023-07-20T13:47:16;7.20;;;3.20;;
80675;SDS011;70041;46.088;18.268;2023-07-20T13:49:41;6.77;;;2.47;;
80675;SDS011;70041;46.088;18.268;2023-07-20T13:52:07;6.90;;;2.90;;
80675;SDS011;70041;46.088;18.268;2023-07-20T13:54:33;8.90;;;2.70;;
80675;SDS011;70041;46.088;18.268;2023-07-20T13:56:58;7.20;;;2.83;;
80675;SDS011;70041;46.088;18.268;2023-07-20T13:59:24;5.93;;;2.80;;
80675;SDS011;70041;46.088;18.268;2023-07-20T14:01:50;6.90;;;2.90;;
80675;SDS011;70041;46.088;18.268;2023-07-20T14:04:15;6.07;;;2.63;;
80675;SDS011;70041;46.088;18.268;2023-07-20T14:06:41;7.60;;;2.63;;
80675;SDS011;70041;46.088;18.268;2023-07-20T14:09:07;7.43;;;2.70;;
80675;SDS011;70041;46.088;18.268;2023-07-20T14:11:33;6.33;;;2.60;;
80675;SDS011;70041;46.088;18.268;2023-07-20T14:13:58;6.23;;;2.77;;
80675;SDS011;70041;46.088;18.268;2023-07-20T14:16:24;5.70;;;2.40;;
80675;SDS011;70041;46.088;18.268;2023-07-20T14:18:49;6.77;;;2.67;;
80675;SDS011;70041;46.088;18.268;2023-07-20T14:21:19;6.07;;;2.38;;
80675;SDS011;70041;46.088;18.268;2023-07-20T14:23:45;6.13;;;2.50;;
80675;SDS011;70041;46.088;18.268;2023-07-20T14:26:14;5.33;;;2.50;;
80675;SDS011;70041;46.088;18.268;2023-07-20T14:28:40;5.05;;;2.50;;
80675;SDS011;70041;46.088;18.268;2023-07-20T14:31:06;7.03;;;2.43;;
80675;SDS011;70041;46.088;18.268;2023-07-20T14:33:31;5.70;;;2.70;;
80675;SDS011;70041;46.088;18.268;2023-07-20T14:35:57;6.53;;;2.77;;
80675;SDS011;70041;46.088;18.268;2023-07-20T14:38:23;5.68;;;2.47;;
80675;SDS011;70041;46.088;18.268;2023-07-20T14:40:48;9.10;;;2.80;;
80675;SDS011;70041;46.088;18.268;2023-07-20T14:43:14;6.00;;;2.33;;
80675;SDS011;70041;46.088;18.268;2023-07-20T14:45:42;5.20;;;2.40;;
80675;SDS011;70041;46.088;18.268;2023-07-20T14:48:08;5.20;;;2.42;;
80675;SDS011;70041;46.088;18.268;2023-07-20T14:50:34;7.10;;;2.33;;
80675;SDS011;70041;46.088;18.268;2023-07-20T14:53:00;8.23;;;2.53;;